sensor_id;sensor_type;location;lat;lon;timestamp;P1;durP1;ratioP1;P2;durP2;ratioP2
4325;SDS011;58429;49.826;10.880;2024-01-30T00:00:22;15.8;;;8.6;;
4325;SDS011;58429;49.826;10.880;2024-01-30T00:01:22;15.8;;;8.6;;
4325;SDS011;58429;49.826;10.880;2024-01-30T00:02:22;15.8;;;8.6;;
4325;SDS011;58429;49.826;10.880;2024-01-30T00:03:22;15;;;7.8;;
4325;SDS011;58429;49.826;10.880;2024-01-30T00:04:21;15;;;7.8;;
4325;SDS011;58429;49.826;10.880;2024-01-30T00:05:21;15;;;7.8;;
4325;SDS011;58429;49.826;10.880;2024-01-30T00:06:21;15;;;7.8;;
4325;SDS011;58429;49.826;10.880;2024-01-30T00:07:21;13.9;;;7.9;;
4325;SDS011;58429;49.826;10.880;2024-01-30T00:08:21;13.9;;;7.9;;
4325;SDS011;58429;49.826;10.880;2024-01-30T00:09:21;13.9;;;7.9;;
4325;SDS011;58429;49.826;10.880;2024-01-30T00:10:21;14;;;7.7;;
4325;SDS011;58429;49.826;10.880;2024-01-30T00:11:22;14;;;7.7;;
4325;SDS011;58429;49.826;10.880;2024-01-30T00:12:22;14;;;7.7;;
4325;SDS011;58429;49.826;10.880;2024-01-30T00:13:22;13.1;;;7.3;;
4325;SDS011;58429;49.826;10.880;2024-01-30T00:14:22;13.1;;;7.3;;
4325;SDS011;58429;49.826;10.880;2024-01-30T00:15:22;13.1;;;7.3;;
4325;SDS011;58429;49.826;10.880;2024-01-30T00:16:22;14.3;;;7.8;;
4325;SDS011;58429;49.826;10.880;2024-01-30T00:17:22;14.3;;;7.8;;
4325;SDS011;58429;49.826;10.880;2024-01-30T00:18:22;14.3;;;7.8;;
4325;SDS011;58429;49.826;10.880;2024-01-30T00:19:22;14;;;7.6;;
4325;SDS011;58429;49.826;10.880;2024-01-30T00:20:22;14;;;7.6;;
4325;SDS011;58429;49.826;10.880;2024-01-30T00:21:22;14;;;7.6;;
4325;SDS011;58429;49.826;10.880;2024-01-30T00:22:22;12;;;7.2;;
4325;SDS011;58429;49.826;10.880;2024-01-30T00:23:22;12;;;7.2;;
4325;SDS011;58429;49.826;10.880;2024-01-30T00:24:22;12;;;7.2;;
4325;SDS011;58429;49.826;10.880;2024-01-30T00:25:22;14.2;;;7.2;;
4325;SDS011;58429;49.826;10.880;2024-01-30T00:26:22;14.2;;;7.2;;
4325;SDS011;58429;49.826;10.880;2024-01-30T00:27:22;14.2;;;7.2;;
4325;SDS011;58429;49.826;10.880;2024-01-30T00:28:22;12.6;;;7.1;;
4325;SDS011;58429;49.826;10.880;2024-01-30T00:29:22;12.6;;;7.1;;
4325;SDS011;58429;49.826;10.880;2024-01-30T00:30:22;12.6;;;7.1;;
4325;SDS011;58429;49.826;10.880;2024-01-30T00:31:22;11.3;;;6.9;;
4325;SDS011;58429;49.826;10.880;2024-01-30T00:32:22;11.3;;;6.9;;
4325;SDS011;58429;49.826;10.880;2024-01-30T00:33:22;11.3;;;6.9;;
4325;SDS011;58429;49.826;10.880;2024-01-30T00:34:22;13.9;;;7.8;;
4325;SDS011;58429;49.826;10.880;2024-01-30T00:35:22;13.9;;;7.8;;
4325;SDS011;58429;49.826;10.880;2024-01-30T00:36:22;13.9;;;7.8;;
4325;SDS011;58429;49.826;10.880;2024-01-30T00:37:22;14.6;;;7.6;;
4325;SDS011;58429;49.826;10.880;2024-01-30T00:38:22;14.6;;;7.6;;
4325;SDS011;58429;49.826;10.880;2024-01-30T00:39:22;14.6;;;7.6;;
4325;SDS011;58429;49.826;10.880;2024-01-30T00:40:22;13.9;;;7.6;;
4325;SDS011;58429;49.826;10.880;2024-01-30T00:41:22;13.9;;;7.6;;
4325;SDS011;58429;49.826;10.880;2024-01-30T00:42:22;13.9;;;7.6;;
4325;SDS011;58429;49.826;10.880;2024-01-30T00:43:22;11;;;6.8;;
4325;SDS011;58429;49.826;10.880;2024-01-30T00:44:22;11;;;6.8;;
4325;SDS011;58429;49.826;10.880;2024-01-30T00:45:22;11;;;6.8;;
4325;SDS011;58429;49.826;10.880;2024-01-30T00:46:22;11.8;;;6.9;;
4325;SDS011;58429;49.826;10.880;2024-01-30T00:47:22;11.8;;;6.9;;
4325;SDS011;58429;49.826;10.880;2024-01-30T00:48:22;11.8;;;6.9;;
4325;SDS011;58429;49.826;10.880;2024-01-30T00:49:22;11.5;;;7.1;;
4325;SDS011;58429;49.826;10.880;2024-01-30T00:50:22;11.5;;;7.1;;
4325;SDS011;58429;49.826;10.880;2024-01-30T00:51:22;11.5;;;7.1;;
4325;SDS011;58429;49.826;10.880;2024-01-30T00:52:22;12.1;;;6.8;;
4325;SDS011;58429;49.826;10.880;2024-01-30T00:53:22;12.1;;;6.8;;
4325;SDS011;58429;49.826;10.880;2024-01-30T00:54:22;12.1;;;6.8;;
4325;SDS011;58429;49.826;10.880;2024-01-30T00:55:22;13.6;;;6.9;;
4325;SDS011;58429;49.826;10.880;2024-01-30T00:56:22;13.6;;;6.9;;
4325;SDS011;58429;49.826;10.880;2024-01-30T00:57:22;13.6;;;6.9;;
4325;SDS011;58429;49.826;10.880;2024-01-30T00:58:22;11.8;;;7.1;;
4325;SDS011;58429;49.826;10.880;2024-01-30T00:59:22;11.8;;;7.1;;
4325;SDS011;58429;49.826;10.880;2024-01-30T01:00:22;11.8;;;7.1;;
4325;SDS011;58429;49.826;10.880;2024-01-30T01:01:22;11;;;6.8;;
4325;SDS011;58429;49.826;10.880;2024-01-30T01:02:22;11;;;6.8;;
4325;SDS011;58429;49.826;10.880;2024-01-30T01:03:22;11;;;6.8;;
4325;SDS011;58429;49.826;10.880;2024-01-30T01:04:22;12.9;;;7.1;;
4325;SDS011;58429;49.826;10.880;2024-01-30T01:05:22;12.9;;;7.1;;
4325;SDS011;58429;49.826;10.880;2024-01-30T01:06:22;12.9;;;7.1;;
4325;SDS011;58429;49.826;10.880;2024-01-30T01:07:22;11.1;;;6.6;;
4325;SDS011;58429;49.826;10.880;2024-01-30T01:08:22;11.1;;;6.6;;
4325;SDS011;58429;49.826;10.880;2024-01-30T01:09:22;11.1;;;6.6;;
4325;SDS011;58429;49.826;10.880;2024-01-30T01:10:22;9.7;;;6.2;;
4325;SDS011;58429;49.826;10.880;2024-01-30T01:11:22;9.7;;;6.2;;
4325;SDS011;58429;49.826;10.880;2024-01-30T01:12:22;9.7;;;6.2;;
4325;SDS011;58429;49.826;10.880;2024-01-30T01:13:22;9.9;;;6.4;;
4325;SDS011;58429;49.826;10.880;2024-01-30T01:14:22;9.9;;;6.4;;
4325;SDS011;58429;49.826;10.880;2024-01-30T01:15:22;9.9;;;6.4;;
4325;SDS011;58429;49.826;10.880;2024-01-30T01:16:22;11.8;;;6.5;;
4325;SDS011;58429;49.826;10.880;2024-01-30T01:17:22;11.8;;;6.5;;
4325;SDS011;58429;49.826;10.880;2024-01-30T01:18:22;11.8;;;6.5;;
4325;SDS011;58429;49.826;10.880;2024-01-30T01:19:22;12.7;;;6.6;;
4325;SDS011;58429;49.826;10.880;2024-01-30T01:20:22;12.7;;;6.6;;
4325;SDS011;58429;49.826;10.880;2024-01-30T01:21:22;12.7;;;6.6;;
4325;SDS011;58429;49.826;10.880;2024-01-30T01:22:22;11.2;;;6.4;;
4325;SDS011;58429;49.826;10.880;2024-01-30T01:23:22;11.2;;;6.4;;
4325;SDS011;58429;49.826;10.880;2024-01-30T01:24:22;11.2;;;6.4;;
4325;SDS011;58429;49.826;10.880;2024-01-30T01:25:22;11;;;6.7;;
4325;SDS011;58429;49.826;10.880;2024-01-30T01:26:22;11;;;6.7;;
4325;SDS011;58429;49.826;10.880;2024-01-30T01:27:22;11;;;6.7;;
4325;SDS011;58429;49.826;10.880;2024-01-30T01:28:22;9;;;6.2;;
4325;SDS011;58429;49.826;10.880;2024-01-30T01:29:22;9;;;6.2;;
4325;SDS011;58429;49.826;10.880;2024-01-30T01:30:22;9;;;6.2;;
4325;SDS011;58429;49.826;10.880;2024-01-30T01:31:22;11;;;6.2;;
4325;SDS011;58429;49.826;10.880;2024-01-30T01:32:22;11;;;6.2;;
4325;SDS011;58429;49.826;10.880;2024-01-30T01:33:22;11;;;6.2;;
4325;SDS011;58429;49.826;10.880;2024-01-30T01:34:22;9.9;;;6;;
4325;SDS011;58429;49.826;10.880;2024-01-30T01:35:22;9.9;;;6;;
4325;SDS011;58429;49.826;10.880;2024-01-30T01:36:22;9.9;;;6;;
4325;SDS011;58429;49.826;10.880;2024-01-30T01:37:22;9.4;;;6.1;;
4325;SDS011;58429;49.826;10.880;2024-01-30T01:38:22;9.4;;;6.1;;
4325;SDS011;58429;49.826;10.880;2024-01-30T01:39:22;9.4;;;6.1;;
4325;SDS011;58429;49.826;10.880;2024-01-30T01:40:22;10.5;;;6.4;;
4325;SDS011;58429;49.826;10.880;2024-01-30T01:41:22;10.5;;;6.4;;
4325;SDS011;58429;49.826;10.880;2024-01-30T01:42:22;10.5;;;6.4;;
4325;SDS011;58429;49.826;10.880;2024-01-30T01:43:22;11.2;;;6.5;;
4325;SDS011;58429;49.826;10.880;2024-01-30T01:44:22;11.2;;;6.5;;
4325;SDS011;58429;49.826;10.880;2024-01-30T01:45:22;11.2;;;6.5;;
4325;SDS011;58429;49.826;10.880;2024-01-30T01:46:22;12.1;;;6.8;;
4325;SDS011;58429;49.826;10.880;2024-01-30T01:47:22;12.1;;;6.8;;
4325;SDS011;58429;49.826;10.880;2024-01-30T01:48:22;12.1;;;6.8;;
4325;SDS011;58429;49.826;10.880;2024-01-30T01:49:22;11;;;6.5;;
4325;SDS011;58429;49.826;10.880;2024-01-30T01:50:22;11;;;6.5;;
4325;SDS011;58429;49.826;10.880;2024-01-30T01:51:22;11;;;6.5;;
4325;SDS011;58429;49.826;10.880;2024-01-30T01:52:22;9.6;;;6.2;;
4325;SDS011;58429;49.826;10.880;2024-01-30T01:53:22;9.6;;;6.2;;
4325;SDS011;58429;49.826;10.880;2024-01-30T01:54:22;9.6;;;6.2;;
4325;SDS011;58429;49.826;10.880;2024-01-30T01:55:22;9;;;6.4;;
4325;SDS011;58429;49.826;10.880;2024-01-30T01:56:22;9;;;6.4;;
4325;SDS011;58429;49.826;10.880;2024-01-30T01:57:22;9;;;6.4;;
4325;SDS011;58429;49.826;10.880;2024-01-30T01:58:22;9.9;;;6.4;;
4325;SDS011;58429;49.826;10.880;2024-01-30T01:59:22;9.9;;;6.4;;
4325;SDS011;58429;49.826;10.880;2024-01-30T02:00:22;9.9;;;6.4;;
4325;SDS011;58429;49.826;10.880;2024-01-30T02:01:22;9.6;;;5.9;;
4325;SDS011;58429;49.826;10.880;2024-01-30T02:02:22;9.6;;;5.9;;
4325;SDS011;58429;49.826;10.880;2024-01-30T02:03:22;9.6;;;5.9;;
4325;SDS011;58429;49.826;10.880;2024-01-30T02:04:22;10.8;;;6.3;;
4325;SDS011;58429;49.826;10.880;2024-01-30T02:05:22;10.8;;;6.3;;
4325;SDS011;58429;49.826;10.880;2024-01-30T02:06:22;10.8;;;6.3;;
4325;SDS011;58429;49.826;10.880;2024-01-30T02:07:22;9.5;;;6;;
4325;SDS011;58429;49.826;10.880;2024-01-30T02:08:22;9.5;;;6;;
4325;SDS011;58429;49.826;10.880;2024-01-30T02:09:22;9.5;;;6;;
4325;SDS011;58429;49.826;10.880;2024-01-30T02:10:22;9.7;;;6.2;;
4325;SDS011;58429;49.826;10.880;2024-01-30T02:11:22;9.7;;;6.2;;
4325;SDS011;58429;49.826;10.880;2024-01-30T02:12:22;9.7;;;6.2;;
4325;SDS011;58429;49.826;10.880;2024-01-30T02:13:22;10.1;;;5.5;;
4325;SDS011;58429;49.826;10.880;2024-01-30T02:14:22;10.1;;;5.5;;
4325;SDS011;58429;49.826;10.880;2024-01-30T02:15:22;10.1;;;5.5;;
4325;SDS011;58429;49.826;10.880;2024-01-30T02:16:22;9.4;;;5.9;;
4325;SDS011;58429;49.826;10.880;2024-01-30T02:17:23;9.4;;;5.9;;
4325;SDS011;58429;49.826;10.880;2024-01-30T02:18:22;9.4;;;5.9;;
4325;SDS011;58429;49.826;10.880;2024-01-30T02:19:22;8.3;;;5.8;;
4325;SDS011;58429;49.826;10.880;2024-01-30T02:20:22;8.3;;;5.8;;
4325;SDS011;58429;49.826;10.880;2024-01-30T02:21:22;8.3;;;5.8;;
4325;SDS011;58429;49.826;10.880;2024-01-30T02:22:22;9.2;;;5.8;;
4325;SDS011;58429;49.826;10.880;2024-01-30T02:23:22;9.2;;;5.8;;
4325;SDS011;58429;49.826;10.880;2024-01-30T02:24:22;9.2;;;5.8;;
4325;SDS011;58429;49.826;10.880;2024-01-30T02:25:29;8.6;;;5.5;;
4325;SDS011;58429;49.826;10.880;2024-01-30T02:26:22;8.6;;;5.5;;
4325;SDS011;58429;49.826;10.880;2024-01-30T02:27:22;8.6;;;5.5;;
4325;SDS011;58429;49.826;10.880;2024-01-30T02:28:22;9.5;;;6;;
4325;SDS011;58429;49.826;10.880;2024-01-30T02:29:22;9.5;;;6;;
4325;SDS011;58429;49.826;10.880;2024-01-30T02:30:22;9.5;;;6;;
4325;SDS011;58429;49.826;10.880;2024-01-30T02:31:22;9.6;;;5.6;;
4325;SDS011;58429;49.826;10.880;2024-01-30T02:32:22;9.6;;;5.6;;
4325;SDS011;58429;49.826;10.880;2024-01-30T02:33:22;9.6;;;5.6;;
4325;SDS011;58429;49.826;10.880;2024-01-30T02:34:22;7.5;;;5.4;;
4325;SDS011;58429;49.826;10.880;2024-01-30T02:35:22;7.5;;;5.4;;
4325;SDS011;58429;49.826;10.880;2024-01-30T02:36:22;7.5;;;5.4;;
4325;SDS011;58429;49.826;10.880;2024-01-30T02:37:22;9.4;;;5.6;;
4325;SDS011;58429;49.826;10.880;2024-01-30T02:38:22;9.4;;;5.6;;
4325;SDS011;58429;49.826;10.880;2024-01-30T02:39:22;9.4;;;5.6;;
4325;SDS011;58429;49.826;10.880;2024-01-30T02:40:22;9.3;;;5.5;;
4325;SDS011;58429;49.826;10.880;2024-01-30T02:41:22;9.3;;;5.5;;
4325;SDS011;58429;49.826;10.880;2024-01-30T02:42:22;9.3;;;5.5;;
4325;SDS011;58429;49.826;10.880;2024-01-30T02:43:22;8.3;;;5.5;;
4325;SDS011;58429;49.826;10.880;2024-01-30T02:44:22;8.3;;;5.5;;
4325;SDS011;58429;49.826;10.880;2024-01-30T02:45:22;8.3;;;5.5;;
4325;SDS011;58429;49.826;10.880;2024-01-30T02:46:22;7.8;;;5.3;;
4325;SDS011;58429;49.826;10.880;2024-01-30T02:47:22;7.8;;;5.3;;
4325;SDS011;58429;49.826;10.880;2024-01-30T02:48:22;7.8;;;5.3;;
4325;SDS011;58429;49.826;10.880;2024-01-30T02:49:22;9.2;;;5.9;;
4325;SDS011;58429;49.826;10.880;2024-01-30T02:50:22;9.2;;;5.9;;
4325;SDS011;58429;49.826;10.880;2024-01-30T02:51:22;9.2;;;5.9;;
4325;SDS011;58429;49.826;10.880;2024-01-30T02:52:22;8.2;;;5.4;;
4325;SDS011;58429;49.826;10.880;2024-01-30T02:53:22;8.2;;;5.4;;
4325;SDS011;58429;49.826;10.880;2024-01-30T02:54:22;8.2;;;5.4;;
4325;SDS011;58429;49.826;10.880;2024-01-30T02:55:22;7.6;;;5.1;;
4325;SDS011;58429;49.826;10.880;2024-01-30T02:56:22;7.6;;;5.1;;
4325;SDS011;58429;49.826;10.880;2024-01-30T02:57:22;7.6;;;5.1;;
4325;SDS011;58429;49.826;10.880;2024-01-30T02:58:22;8.5;;;5.6;;
4325;SDS011;58429;49.826;10.880;2024-01-30T02:59:22;8.5;;;5.6;;
4325;SDS011;58429;49.826;10.880;2024-01-30T03:00:22;8.5;;;5.6;;
4325;SDS011;58429;49.826;10.880;2024-01-30T03:01:22;8;;;5.6;;
4325;SDS011;58429;49.826;10.880;2024-01-30T03:02:22;8;;;5.6;;
4325;SDS011;58429;49.826;10.880;2024-01-30T03:03:22;8;;;5.6;;
4325;SDS011;58429;49.826;10.880;2024-01-30T03:04:22;9;;;5.3;;
4325;SDS011;58429;49.826;10.880;2024-01-30T03:05:22;9;;;5.3;;
4325;SDS011;58429;49.826;10.880;2024-01-30T03:06:22;9;;;5.3;;
4325;SDS011;58429;49.826;10.880;2024-01-30T03:07:22;8;;;5;;
4325;SDS011;58429;49.826;10.880;2024-01-30T03:08:22;8;;;5;;
4325;SDS011;58429;49.826;10.880;2024-01-30T03:09:22;8;;;5;;
4325;SDS011;58429;49.826;10.880;2024-01-30T03:10:22;8;;;5.2;;
4325;SDS011;58429;49.826;10.880;2024-01-30T03:11:22;8;;;5.2;;
4325;SDS011;58429;49.826;10.880;2024-01-30T03:12:22;8;;;5.2;;
4325;SDS011;58429;49.826;10.880;2024-01-30T03:13:22;7.6;;;5.3;;
4325;SDS011;58429;49.826;10.880;2024-01-30T03:14:22;7.6;;;5.3;;
4325;SDS011;58429;49.826;10.880;2024-01-30T03:15:22;7.6;;;5.3;;
4325;SDS011;58429;49.826;10.880;2024-01-30T03:16:22;7.9;;;5.1;;
4325;SDS011;58429;49.826;10.880;2024-01-30T03:17:22;7.9;;;5.1;;
4325;SDS011;58429;49.826;10.880;2024-01-30T03:18:22;7.9;;;5.1;;
4325;SDS011;58429;49.826;10.880;2024-01-30T03:19:22;7.9;;;5.1;;
4325;SDS011;58429;49.826;10.880;2024-01-30T03:20:22;8.7;;;5.3;;
4325;SDS011;58429;49.826;10.880;2024-01-30T03:21:22;8.7;;;5.3;;
4325;SDS011;58429;49.826;10.880;2024-01-30T03:22:22;8.7;;;5.3;;
4325;SDS011;58429;49.826;10.880;2024-01-30T03:23:22;6.7;;;4.6;;
4325;SDS011;58429;49.826;10.880;2024-01-30T03:24:22;6.7;;;4.6;;
4325;SDS011;58429;49.826;10.880;2024-01-30T03:25:22;6.7;;;4.6;;
4325;SDS011;58429;49.826;10.880;2024-01-30T03:26:22;7.4;;;4.9;;
4325;SDS011;58429;49.826;10.880;2024-01-30T03:27:22;7.4;;;4.9;;
4325;SDS011;58429;49.826;10.880;2024-01-30T03:28:22;7.4;;;4.9;;
4325;SDS011;58429;49.826;10.880;2024-01-30T03:29:22;7.5;;;5;;
4325;SDS011;58429;49.826;10.880;2024-01-30T03:30:22;7.5;;;5;;
4325;SDS011;58429;49.826;10.880;2024-01-30T03:31:22;7.5;;;5;;
4325;SDS011;58429;49.826;10.880;2024-01-30T03:32:22;7.8;;;5.2;;
4325;SDS011;58429;49.826;10.880;2024-01-30T03:33:22;7.8;;;5.2;;
4325;SDS011;58429;49.826;10.880;2024-01-30T03:34:22;7.8;;;5.2;;
4325;SDS011;58429;49.826;10.880;2024-01-30T03:35:22;7.2;;;4.9;;
4325;SDS011;58429;49.826;10.880;2024-01-30T03:36:22;7.2;;;4.9;;
4325;SDS011;58429;49.826;10.880;2024-01-30T03:37:22;7.2;;;4.9;;
4325;SDS011;58429;49.826;10.880;2024-01-30T03:38:22;7;;;4.6;;
4325;SDS011;58429;49.826;10.880;2024-01-30T03:39:22;7;;;4.6;;
4325;SDS011;58429;49.826;10.880;2024-01-30T03:40:22;7;;;4.6;;
4325;SDS011;58429;49.826;10.880;2024-01-30T03:41:22;7.9;;;5.1;;
4325;SDS011;58429;49.826;10.880;2024-01-30T03:42:22;7.9;;;5.1;;
4325;SDS011;58429;49.826;10.880;2024-01-30T03:43:22;7.9;;;5.1;;
4325;SDS011;58429;49.826;10.880;2024-01-30T03:44:22;7.8;;;5.1;;
4325;SDS011;58429;49.826;10.880;2024-01-30T03:45:22;7.8;;;5.1;;
4325;SDS011;58429;49.826;10.880;2024-01-30T03:46:22;7.8;;;5.1;;
4325;SDS011;58429;49.826;10.880;2024-01-30T03:47:22;7;;;4.7;;
4325;SDS011;58429;49.826;10.880;2024-01-30T03:48:22;7;;;4.7;;
4325;SDS011;58429;49.826;10.880;2024-01-30T03:49:22;7;;;4.7;;
4325;SDS011;58429;49.826;10.880;2024-01-30T03:50:22;6.5;;;4.6;;
4325;SDS011;58429;49.826;10.880;2024-01-30T03:51:22;6.5;;;4.6;;
4325;SDS011;58429;49.826;10.880;2024-01-30T03:52:22;6.5;;;4.6;;
4325;SDS011;58429;49.826;10.880;2024-01-30T03:53:22;7;;;4.3;;
4325;SDS011;58429;49.826;10.880;2024-01-30T03:54:22;7;;;4.3;;
4325;SDS011;58429;49.826;10.880;2024-01-30T03:55:22;7;;;4.3;;
4325;SDS011;58429;49.826;10.880;2024-01-30T03:56:22;7.5;;;4.6;;
4325;SDS011;58429;49.826;10.880;2024-01-30T03:57:22;7.5;;;4.6;;
4325;SDS011;58429;49.826;10.880;2024-01-30T03:58:22;7.5;;;4.6;;
4325;SDS011;58429;49.826;10.880;2024-01-30T03:59:22;6.8;;;4.7;;
4325;SDS011;58429;49.826;10.880;2024-01-30T04:00:22;6.8;;;4.7;;
4325;SDS011;58429;49.826;10.880;2024-01-30T04:01:22;6.8;;;4.7;;
4325;SDS011;58429;49.826;10.880;2024-01-30T04:02:22;8.4;;;5.2;;
4325;SDS011;58429;49.826;10.880;2024-01-30T04:03:22;8.4;;;5.2;;
4325;SDS011;58429;49.826;10.880;2024-01-30T04:04:22;8.4;;;5.2;;
4325;SDS011;58429;49.826;10.880;2024-01-30T04:05:22;7.6;;;4.7;;
4325;SDS011;58429;49.826;10.880;2024-01-30T04:06:22;7.6;;;4.7;;
4325;SDS011;58429;49.826;10.880;2024-01-30T04:07:22;7.6;;;4.7;;
4325;SDS011;58429;49.826;10.880;2024-01-30T04:08:22;7.7;;;4.7;;
4325;SDS011;58429;49.826;10.880;2024-01-30T04:09:22;7.7;;;4.7;;
4325;SDS011;58429;49.826;10.880;2024-01-30T04:10:22;7.7;;;4.7;;
4325;SDS011;58429;49.826;10.880;2024-01-30T04:11:22;5.7;;;4.2;;
4325;SDS011;58429;49.826;10.880;2024-01-30T04:12:22;5.7;;;4.2;;
4325;SDS011;58429;49.826;10.880;2024-01-30T04:13:22;5.7;;;4.2;;
4325;SDS011;58429;49.826;10.880;2024-01-30T04:14:22;6.6;;;4.4;;
4325;SDS011;58429;49.826;10.880;2024-01-30T04:15:22;6.6;;;4.4;;
4325;SDS011;58429;49.826;10.880;2024-01-30T04:16:22;6.6;;;4.4;;
4325;SDS011;58429;49.826;10.880;2024-01-30T04:17:22;6.7;;;4.4;;
4325;SDS011;58429;49.826;10.880;2024-01-30T04:18:22;6.7;;;4.4;;
4325;SDS011;58429;49.826;10.880;2024-01-30T04:19:22;6.7;;;4.4;;
4325;SDS011;58429;49.826;10.880;2024-01-30T04:20:22;6.3;;;4.7;;
4325;SDS011;58429;49.826;10.880;2024-01-30T04:21:22;6.3;;;4.7;;
4325;SDS011;58429;49.826;10.880;2024-01-30T04:22:22;6.3;;;4.7;;
4325;SDS011;58429;49.826;10.880;2024-01-30T04:23:22;6.1;;;4.4;;
4325;SDS011;58429;49.826;10.880;2024-01-30T04:24:22;6.1;;;4.4;;
4325;SDS011;58429;49.826;10.880;2024-01-30T04:25:22;6.1;;;4.4;;
4325;SDS011;58429;49.826;10.880;2024-01-30T04:26:22;5.9;;;4.7;;
4325;SDS011;58429;49.826;10.880;2024-01-30T04:27:22;5.9;;;4.7;;
4325;SDS011;58429;49.826;10.880;2024-01-30T04:28:22;5.9;;;4.7;;
4325;SDS011;58429;49.826;10.880;2024-01-30T04:29:22;6.7;;;4.6;;
4325;SDS011;58429;49.826;10.880;2024-01-30T04:30:22;6.7;;;4.6;;
4325;SDS011;58429;49.826;10.880;2024-01-30T04:31:22;6.7;;;4.6;;
4325;SDS011;58429;49.826;10.880;2024-01-30T04:32:22;7;;;4.6;;
4325;SDS011;58429;49.826;10.880;2024-01-30T04:33:22;7;;;4.6;;
4325;SDS011;58429;49.826;10.880;2024-01-30T04:34:22;7;;;4.6;;
4325;SDS011;58429;49.826;10.880;2024-01-30T04:35:22;7.7;;;4.9;;
4325;SDS011;58429;49.826;10.880;2024-01-30T04:36:22;7.7;;;4.9;;
4325;SDS011;58429;49.826;10.880;2024-01-30T04:37:22;7.7;;;4.9;;
4325;SDS011;58429;49.826;10.880;2024-01-30T04:38:22;6.5;;;4.5;;
4325;SDS011;58429;49.826;10.880;2024-01-30T04:39:22;6.5;;;4.5;;
4325;SDS011;58429;49.826;10.880;2024-01-30T04:40:22;6.5;;;4.5;;
4325;SDS011;58429;49.826;10.880;2024-01-30T04:41:22;6.8;;;4.5;;
4325;SDS011;58429;49.826;10.880;2024-01-30T04:42:22;6.8;;;4.5;;
4325;SDS011;58429;49.826;10.880;2024-01-30T04:43:22;6.8;;;4.5;;
4325;SDS011;58429;49.826;10.880;2024-01-30T04:44:22;6.5;;;4.6;;
4325;SDS011;58429;49.826;10.880;2024-01-30T04:45:22;6.5;;;4.6;;
4325;SDS011;58429;49.826;10.880;2024-01-30T04:46:22;6.5;;;4.6;;
4325;SDS011;58429;49.826;10.880;2024-01-30T04:47:22;7.5;;;5;;
4325;SDS011;58429;49.826;10.880;2024-01-30T04:48:22;7.5;;;5;;
4325;SDS011;58429;49.826;10.880;2024-01-30T04:49:22;7.5;;;5;;
4325;SDS011;58429;49.826;10.880;2024-01-30T04:50:22;5.6;;;4.5;;
4325;SDS011;58429;49.826;10.880;2024-01-30T04:51:22;5.6;;;4.5;;
4325;SDS011;58429;49.826;10.880;2024-01-30T04:52:22;5.6;;;4.5;;
4325;SDS011;58429;49.826;10.880;2024-01-30T04:53:22;7.3;;;5;;
4325;SDS011;58429;49.826;10.880;2024-01-30T04:54:22;7.3;;;5;;
4325;SDS011;58429;49.826;10.880;2024-01-30T04:55:22;7.3;;;5;;
4325;SDS011;58429;49.826;10.880;2024-01-30T04:56:22;6.4;;;4.8;;
4325;SDS011;58429;49.826;10.880;2024-01-30T04:57:22;6.4;;;4.8;;
4325;SDS011;58429;49.826;10.880;2024-01-30T04:58:22;6.4;;;4.8;;
4325;SDS011;58429;49.826;10.880;2024-01-30T04:59:22;6.3;;;4.8;;
4325;SDS011;58429;49.826;10.880;2024-01-30T05:00:22;6.3;;;4.8;;
4325;SDS011;58429;49.826;10.880;2024-01-30T05:01:22;6.3;;;4.8;;
4325;SDS011;58429;49.826;10.880;2024-01-30T05:02:22;5.8;;;4.5;;
4325;SDS011;58429;49.826;10.880;2024-01-30T05:03:22;5.8;;;4.5;;
4325;SDS011;58429;49.826;10.880;2024-01-30T05:04:22;5.8;;;4.5;;
4325;SDS011;58429;49.826;10.880;2024-01-30T05:05:22;6.9;;;5.1;;
4325;SDS011;58429;49.826;10.880;2024-01-30T05:06:23;6.9;;;5.1;;
4325;SDS011;58429;49.826;10.880;2024-01-30T05:07:22;6.9;;;5.1;;
4325;SDS011;58429;49.826;10.880;2024-01-30T05:08:22;6.3;;;4.6;;
4325;SDS011;58429;49.826;10.880;2024-01-30T05:09:22;6.3;;;4.6;;
4325;SDS011;58429;49.826;10.880;2024-01-30T05:10:22;6.3;;;4.6;;
4325;SDS011;58429;49.826;10.880;2024-01-30T05:11:22;6.2;;;4.9;;
4325;SDS011;58429;49.826;10.880;2024-01-30T05:12:22;6.2;;;4.9;;
4325;SDS011;58429;49.826;10.880;2024-01-30T05:13:22;6.2;;;4.9;;
4325;SDS011;58429;49.826;10.880;2024-01-30T05:14:22;6.7;;;4.8;;
4325;SDS011;58429;49.826;10.880;2024-01-30T05:15:22;6.7;;;4.8;;
4325;SDS011;58429;49.826;10.880;2024-01-30T05:16:22;6.7;;;4.8;;
4325;SDS011;58429;49.826;10.880;2024-01-30T05:17:22;6.6;;;4.9;;
4325;SDS011;58429;49.826;10.880;2024-01-30T05:18:22;6.6;;;4.9;;
4325;SDS011;58429;49.826;10.880;2024-01-30T05:19:22;6.6;;;4.9;;
4325;SDS011;58429;49.826;10.880;2024-01-30T05:20:22;5.9;;;4.6;;
4325;SDS011;58429;49.826;10.880;2024-01-30T05:21:22;5.9;;;4.6;;
4325;SDS011;58429;49.826;10.880;2024-01-30T05:22:22;5.9;;;4.6;;
4325;SDS011;58429;49.826;10.880;2024-01-30T05:23:22;6.6;;;4.7;;
4325;SDS011;58429;49.826;10.880;2024-01-30T05:24:22;6.6;;;4.7;;
4325;SDS011;58429;49.826;10.880;2024-01-30T05:25:22;6.6;;;4.7;;
4325;SDS011;58429;49.826;10.880;2024-01-30T05:26:22;5.7;;;4.4;;
4325;SDS011;58429;49.826;10.880;2024-01-30T05:27:22;5.7;;;4.4;;
4325;SDS011;58429;49.826;10.880;2024-01-30T05:28:22;5.7;;;4.4;;
4325;SDS011;58429;49.826;10.880;2024-01-30T05:29:22;5.7;;;4.4;;
4325;SDS011;58429;49.826;10.880;2024-01-30T05:30:22;5.7;;;4.4;;
4325;SDS011;58429;49.826;10.880;2024-01-30T05:31:22;5.7;;;4.4;;
4325;SDS011;58429;49.826;10.880;2024-01-30T05:32:22;6.1;;;4.8;;
4325;SDS011;58429;49.826;10.880;2024-01-30T05:33:23;6.1;;;4.8;;
4325;SDS011;58429;49.826;10.880;2024-01-30T05:34:22;6.1;;;4.8;;
4325;SDS011;58429;49.826;10.880;2024-01-30T05:35:22;6.5;;;4.5;;
4325;SDS011;58429;49.826;10.880;2024-01-30T05:36:22;6.5;;;4.5;;
4325;SDS011;58429;49.826;10.880;2024-01-30T05:37:22;6.5;;;4.5;;
4325;SDS011;58429;49.826;10.880;2024-01-30T05:38:22;7.2;;;4.2;;
4325;SDS011;58429;49.826;10.880;2024-01-30T05:39:22;7.2;;;4.2;;
4325;SDS011;58429;49.826;10.880;2024-01-30T05:40:22;7.2;;;4.2;;
4325;SDS011;58429;49.826;10.880;2024-01-30T05:41:22;6.2;;;4.5;;
4325;SDS011;58429;49.826;10.880;2024-01-30T05:42:22;6.2;;;4.5;;
4325;SDS011;58429;49.826;10.880;2024-01-30T05:43:22;6.2;;;4.5;;
4325;SDS011;58429;49.826;10.880;2024-01-30T05:44:22;5.6;;;4.7;;
4325;SDS011;58429;49.826;10.880;2024-01-30T05:45:22;5.6;;;4.7;;
4325;SDS011;58429;49.826;10.880;2024-01-30T05:46:22;5.6;;;4.7;;
4325;SDS011;58429;49.826;10.880;2024-01-30T05:47:22;6.5;;;4.6;;
4325;SDS011;58429;49.826;10.880;2024-01-30T05:48:22;6.5;;;4.6;;
4325;SDS011;58429;49.826;10.880;2024-01-30T05:49:22;6.5;;;4.6;;
4325;SDS011;58429;49.826;10.880;2024-01-30T05:50:22;5.8;;;4.3;;
4325;SDS011;58429;49.826;10.880;2024-01-30T05:51:22;5.8;;;4.3;;
4325;SDS011;58429;49.826;10.880;2024-01-30T05:52:22;5.8;;;4.3;;
4325;SDS011;58429;49.826;10.880;2024-01-30T05:53:22;6;;;4.3;;
4325;SDS011;58429;49.826;10.880;2024-01-30T05:54:22;6;;;4.3;;
4325;SDS011;58429;49.826;10.880;2024-01-30T05:55:22;6;;;4.3;;
4325;SDS011;58429;49.826;10.880;2024-01-30T05:56:22;6.5;;;4.3;;
4325;SDS011;58429;49.826;10.880;2024-01-30T05:57:22;6.5;;;4.3;;
4325;SDS011;58429;49.826;10.880;2024-01-30T05:58:22;6.5;;;4.3;;
4325;SDS011;58429;49.826;10.880;2024-01-30T05:59:22;5.6;;;4.4;;
4325;SDS011;58429;49.826;10.880;2024-01-30T06:00:22;5.6;;;4.4;;
4325;SDS011;58429;49.826;10.880;2024-01-30T06:01:22;5.6;;;4.4;;
4325;SDS011;58429;49.826;10.880;2024-01-30T06:02:22;5.4;;;4;;
4325;SDS011;58429;49.826;10.880;2024-01-30T06:03:22;5.4;;;4;;
4325;SDS011;58429;49.826;10.880;2024-01-30T06:04:22;5.4;;;4;;
4325;SDS011;58429;49.826;10.880;2024-01-30T06:05:23;5.8;;;4.5;;
4325;SDS011;58429;49.826;10.880;2024-01-30T06:06:22;5.8;;;4.5;;
4325;SDS011;58429;49.826;10.880;2024-01-30T06:07:22;5.8;;;4.5;;
4325;SDS011;58429;49.826;10.880;2024-01-30T06:08:22;5.6;;;4.5;;
4325;SDS011;58429;49.826;10.880;2024-01-30T06:09:22;5.6;;;4.5;;
4325;SDS011;58429;49.826;10.880;2024-01-30T06:10:22;5.6;;;4.5;;
4325;SDS011;58429;49.826;10.880;2024-01-30T06:11:22;6.2;;;4.2;;
4325;SDS011;58429;49.826;10.880;2024-01-30T06:12:22;6.2;;;4.2;;
4325;SDS011;58429;49.826;10.880;2024-01-30T06:13:22;6.2;;;4.2;;